sensor_id;sensor_type;location;lat;lon;timestamp;temperature;humidity
67196;DHT22;54122;53.538;49.366;2023-04-03T00:02:19;2.20;83.00
67196;DHT22;54122;53.538;49.366;2023-04-03T00:04:46;2.20;83.00
67196;DHT22;54122;53.538;49.366;2023-04-03T00:07:12;2.20;83.20
67196;DHT22;54122;53.538;49.366;2023-04-03T00:09:40;2.20;83.10
67196;DHT22;54122;53.538;49.366;2023-04-03T00:12:07;2.30;83.20
67196;DHT22;54122;53.538;49.366;2023-04-03T00:14:33;2.30;83.10
67196;DHT22;54122;53.538;49.366;2023-04-03T00:16:59;2.30;83.20
67196;DHT22;54122;53.538;49.366;2023-04-03T00:19:26;2.30;83.30
67196;DHT22;54122;53.538;49.366;2023-04-03T00:21:52;2.30;83.30
67196;DHT22;54122;53.538;49.366;2023-04-03T00:24:19;2.30;83.30
67196;DHT22;54122;53.538;49.366;2023-04-03T00:26:45;2.30;83.30
67196;DHT22;54122;53.538;49.366;2023-04-03T00:29:12;2.20;83.50
67196;DHT22;54122;53.538;49.366;2023-04-03T00:31:38;2.20;83.40
67196;DHT22;54122;53.538;49.366;2023-04-03T00:34:05;2.20;83.50
67196;DHT22;54122;53.538;49.366;2023-04-03T00:36:31;2.10;83.40
67196;DHT22;54122;53.538;49.366;2023-04-03T00:38:58;2.00;83.60
67196;DHT22;54122;53.538;49.366;2023-04-03T00:41:24;2.00;83.80
67196;DHT22;54122;53.538;49.366;2023-04-03T00:43:51;1.90;83.80
67196;DHT22;54122;53.538;49.366;2023-04-03T00:46:18;1.90;84.00
67196;DHT22;54122;53.538;49.366;2023-04-03T00:48:47;1.90;84.30
67196;DHT22;54122;53.538;49.366;2023-04-03T00:51:20;1.80;84.40
67196;DHT22;54122;53.538;49.366;2023-04-03T00:53:55;1.80;84.40
67196;DHT22;54122;53.538;49.366;2023-04-03T00:56:25;1.80;84.60
67196;DHT22;54122;53.538;49.366;2023-04-03T00:59:01;1.80;84.50
67196;DHT22;54122;53.538;49.366;2023-04-03T01:01:29;1.80;84.40
67196;DHT22;54122;53.538;49.366;2023-04-03T01:03:58;1.70;84.50
67196;DHT22;54122;53.538;49.366;2023-04-03T01:06:32;1.60;84.60
67196;DHT22;54122;53.538;49.366;2023-04-03T01:08:59;1.60;84.40
67196;DHT22;54122;53.538;49.366;2023-04-03T01:11:26;1.50;84.60
67196;DHT22;54122;53.538;49.366;2023-04-03T01:13:53;1.40;85.30
67196;DHT22;54122;53.538;49.366;2023-04-03T01:16:22;1.40;85.40
67196;DHT22;54122;53.538;49.366;2023-04-03T01:18:49;1.40;85.20
67196;DHT22;54122;53.538;49.366;2023-04-03T01:21:42;1.30;85.50
67196;DHT22;54122;53.538;49.366;2023-04-03T01:24:37;1.30;85.80
67196;DHT22;54122;53.538;49.366;2023-04-03T01:27:10;1.30;85.80
67196;DHT22;54122;53.538;49.366;2023-04-03T01:29:37;1.20;86.10
67196;DHT22;54122;53.538;49.366;2023-04-03T01:32:04;1.30;86.50
67196;DHT22;54122;53.538;49.366;2023-04-03T01:34:31;1.30;86.60
67196;DHT22;54122;53.538;49.366;2023-04-03T01:36:58;1.40;86.20
67196;DHT22;54122;53.538;49.366;2023-04-03T01:39:24;1.30;86.00
67196;DHT22;54122;53.538;49.366;2023-04-03T01:41:51;1.30;86.10
67196;DHT22;54122;53.538;49.366;2023-04-03T01:44:18;1.30;86.20
67196;DHT22;54122;53.538;49.366;2023-04-03T01:46:44;1.40;86.30
67196;DHT22;54122;53.538;49.366;2023-04-03T01:49:11;1.30;86.40
67196;DHT22;54122;53.538;49.366;2023-04-03T01:51:37;1.30;86.70
67196;DHT22;54122;53.538;49.366;2023-04-03T01:54:03;1.30;86.80
67196;DHT22;54122;53.538;49.366;2023-04-03T01:56:30;1.20;87.00
67196;DHT22;54122;53.538;49.366;2023-04-03T01:58:57;1.30;87.10
67196;DHT22;54122;53.538;49.366;2023-04-03T02:01:23;1.30;87.10
67196;DHT22;54122;53.538;49.366;2023-04-03T02:03:49;1.20;87.00
67196;DHT22;54122;53.538;49.366;2023-04-03T02:06:16;1.20;87.10
67196;DHT22;54122;53.538;49.366;2023-04-03T02:08:42;1.20;87.10
67196;DHT22;54122;53.538;49.366;2023-04-03T02:11:09;1.10;87.30
67196;DHT22;54122;53.538;49.366;2023-04-03T02:13:35;1.10;87.50
67196;DHT22;54122;53.538;49.366;2023-04-03T02:16:09;1.10;87.80
67196;DHT22;54122;53.538;49.366;2023-04-03T02:18:37;1.10;87.60
67196;DHT22;54122;53.538;49.366;2023-04-03T02:21:03;1.10;87.90
67196;DHT22;54122;53.538;49.366;2023-04-03T02:23:30;1.20;87.80
67196;DHT22;54122;53.538;49.366;2023-04-03T02:26:23;1.20;87.70
67196;DHT22;54122;53.538;49.366;2023-04-03T02:28:49;1.30;87.40
67196;DHT22;54122;53.538;49.366;2023-04-03T02:31:15;1.30;87.50
67196;DHT22;54122;53.538;49.366;2023-04-03T02:33:42;1.50;87.50
67196;DHT22;54122;53.538;49.366;2023-04-03T02:36:08;1.50;88.10
67196;DHT22;54122;53.538;49.366;2023-04-03T02:38:35;1.60;87.20
67196;DHT22;54122;53.538;49.366;2023-04-03T02:41:07;1.70;87.30
67196;DHT22;54122;53.538;49.366;2023-04-03T02:43:34;1.80;87.10
67196;DHT22;54122;53.538;49.366;2023-04-03T02:46:01;2.00;86.60
67196;DHT22;54122;53.538;49.366;2023-04-03T02:48:27;2.00;86.30
67196;DHT22;54122;53.538;49.366;2023-04-03T02:50:54;2.10;86.20
67196;DHT22;54122;53.538;49.366;2023-04-03T02:53:21;2.20;85.90
67196;DHT22;54122;53.538;49.366;2023-04-03T02:55:48;2.30;85.80
67196;DHT22;54122;53.538;49.366;2023-04-03T02:58:15;2.40;85.80
67196;DHT22;54122;53.538;49.366;2023-04-03T03:00:42;2.60;85.70
67196;DHT22;54122;53.538;49.366;2023-04-03T03:03:09;2.90;85.20
67196;DHT22;54122;53.538;49.366;2023-04-03T03:05:35;3.40;84.60
67196;DHT22;54122;53.538;49.366;2023-04-03T03:08:02;3.90;83.20
67196;DHT22;54122;53.538;49.366;2023-04-03T03:10:28;4.40;81.40
67196;DHT22;54122;53.538;49.366;2023-04-03T03:12:55;4.90;80.10
67196;DHT22;54122;53.538;49.366;2023-04-03T03:15:21;5.90;78.70
67196;DHT22;54122;53.538;49.366;2023-04-03T03:17:47;7.20;75.00
67196;DHT22;54122;53.538;49.366;2023-04-03T03:20:14;8.40;70.60
67196;DHT22;54122;53.538;49.366;2023-04-03T03:22:41;9.50;67.00
67196;DHT22;54122;53.538;49.366;2023-04-03T03:25:08;10.30;64.10
67196;DHT22;54122;53.538;49.366;2023-04-03T03:27:34;11.10;61.50
67196;DHT22;54122;53.538;49.366;2023-04-03T03:30:01;11.60;59.20
67196;DHT22;54122;53.538;49.366;2023-04-03T03:32:27;12.00;57.20
67196;DHT22;54122;53.538;49.366;2023-04-03T03:34:54;12.50;54.50
67196;DHT22;54122;53.538;49.366;2023-04-03T03:37:20;12.80;53.00
67196;DHT22;54122;53.538;49.366;2023-04-03T03:39:46;13.10;52.50
67196;DHT22;54122;53.538;49.366;2023-04-03T03:42:13;13.90;51.00
67196;DHT22;54122;53.538;49.366;2023-04-03T03:44:39;14.70;48.90
67196;DHT22;54122;53.538;49.366;2023-04-03T03:47:06;15.30;47.10
67196;DHT22;54122;53.538;49.366;2023-04-03T03:49:33;15.70;45.00
67196;DHT22;54122;53.538;49.366;2023-04-03T03:51:59;16.00;41.80
67196;DHT22;54122;53.538;49.366;2023-04-03T03:54:25;16.20;41.70
67196;DHT22;54122;53.538;49.366;2023-04-03T03:56:51;16.50;40.80
67196;DHT22;54122;53.538;49.366;2023-04-03T03:59:18;17.00;40.00
67196;DHT22;54122;53.538;49.366;2023-04-03T04:01:44;17.70;38.80
67196;DHT22;54122;53.538;49.366;2023-04-03T04:04:10;18.40;36.90
67196;DHT22;54122;53.538;49.366;2023-04-03T04:06:38;18.60;35.60
67196;DHT22;54122;53.538;49.366;2023-04-03T04:09:11;18.70;34.40
67196;DHT22;54122;53.538;49.366;2023-04-03T04:11:37;18.70;34.20
67196;DHT22;54122;53.538;49.366;2023-04-03T04:14:22;18.60;32.20
67196;DHT22;54122;53.538;49.366;2023-04-03T04:16:48;18.50;33.00
67196;DHT22;54122;53.538;49.366;2023-04-03T04:19:14;18.60;32.90
67196;DHT22;54122;53.538;49.366;2023-04-03T04:21:41;18.60;32.20
67196;DHT22;54122;53.538;49.366;2023-04-03T04:24:08;18.80;31.90
67196;DHT22;54122;53.538;49.366;2023-04-03T04:26:34;18.80;31.30
67196;DHT22;54122;53.538;49.366;2023-04-03T04:29:00;18.90;31.20
67196;DHT22;54122;53.538;49.366;2023-04-03T04:31:27;19.20;30.60
67196;DHT22;54122;53.538;49.366;2023-04-03T04:33:53;19.20;29.70
67196;DHT22;54122;53.538;49.366;2023-04-03T04:36:39;19.20;30.00
67196;DHT22;54122;53.538;49.366;2023-04-03T04:41:50;19.50;29.30
67196;DHT22;54122;53.538;49.366;2023-04-03T04:44:16;19.70;29.00
67196;DHT22;54122;53.538;49.366;2023-04-03T04:46:42;20.10;28.90
67196;DHT22;54122;53.538;49.366;2023-04-03T04:49:08;20.40;28.20
67196;DHT22;54122;53.538;49.366;2023-04-03T04:51:54;20.50;28.00
67196;DHT22;54122;53.538;49.366;2023-04-03T04:54:20;20.70;27.80
67196;DHT22;54122;53.538;49.366;2023-04-03T04:57:04;20.70;27.20
67196;DHT22;54122;53.538;49.366;2023-04-03T04:59:31;20.70;27.60
67196;DHT22;54122;53.538;49.366;2023-04-03T05:01:57;21.20;26.90
67196;DHT22;54122;53.538;49.366;2023-04-03T05:04:23;21.20;26.30
67196;DHT22;54122;53.538;49.366;2023-04-03T05:06:49;21.00;26.40
67196;DHT22;54122;53.538;49.366;2023-04-03T05:09:16;21.30;26.40
67196;DHT22;54122;53.538;49.366;2023-04-03T05:12:01;21.80;25.80
67196;DHT22;54122;53.538;49.366;2023-04-03T05:14:30;22.00;25.70
67196;DHT22;54122;53.538;49.366;2023-04-03T05:16:57;21.90;25.10
67196;DHT22;54122;53.538;49.366;2023-04-03T05:19:24;21.60;25.00
67196;DHT22;54122;53.538;49.366;2023-04-03T05:21:50;21.70;25.40
67196;DHT22;54122;53.538;49.366;2023-04-03T05:24:16;22.00;25.30
67196;DHT22;54122;53.538;49.366;2023-04-03T05:26:44;22.30;24.70
67196;DHT22;54122;53.538;49.366;2023-04-03T05:29:10;22.20;23.90
67196;DHT22;54122;53.538;49.366;2023-04-03T05:31:38;22.10;24.60
67196;DHT22;54122;53.538;49.366;2023-04-03T05:34:04;22.40;24.10
67196;DHT22;54122;53.538;49.366;2023-04-03T05:36:30;22.40;24.20
67196;DHT22;54122;53.538;49.366;2023-04-03T05:39:15;22.50;24.00
67196;DHT22;54122;53.538;49.366;2023-04-03T05:41:41;22.50;23.70
67196;DHT22;54122;53.538;49.366;2023-04-03T05:44:07;22.70;23.70
67196;DHT22;54122;53.538;49.366;2023-04-03T05:46:34;22.90;23.30
67196;DHT22;54122;53.538;49.366;2023-04-03T05:49:00;22.90;23.10
67196;DHT22;54122;53.538;49.366;2023-04-03T05:51:30;23.00;22.80
67196;DHT22;54122;53.538;49.366;2023-04-03T05:54:33;23.20;22.40
67196;DHT22;54122;53.538;49.366;2023-04-03T05:59:44;23.00;22.70
67196;DHT22;54122;53.538;49.366;2023-04-03T06:02:29;23.50;22.60
67196;DHT22;54122;53.538;49.366;2023-04-03T06:04:57;24.10;22.00
67196;DHT22;54122;53.538;49.366;2023-04-03T06:07:24;24.00;21.30
67196;DHT22;54122;53.538;49.366;2023-04-03T06:09:55;23.60;22.10
67196;DHT22;54122;53.538;49.366;2023-04-03T06:12:22;23.50;22.10
67196;DHT22;54122;53.538;49.366;2023-04-03T06:17:36;23.00;22.60
67196;DHT22;54122;53.538;49.366;2023-04-03T06:20:04;23.70;22.20
67196;DHT22;54122;53.538;49.366;2023-04-03T06:22:30;23.90;21.50
67196;DHT22;54122;53.538;49.366;2023-04-03T06:24:57;23.60;21.40
67196;DHT22;54122;53.538;49.366;2023-04-03T06:27:23;23.30;21.70
67196;DHT22;54122;53.538;49.366;2023-04-03T06:29:49;23.60;22.10
67196;DHT22;54122;53.538;49.366;2023-04-03T06:32:16;23.80;21.70
67196;DHT22;54122;53.538;49.366;2023-04-03T06:37:27;24.10;21.50
67196;DHT22;54122;53.538;49.366;2023-04-03T06:39:54;23.90;21.30
67196;DHT22;54122;53.538;49.366;2023-04-03T06:42:21;23.70;21.40
67196;DHT22;54122;53.538;49.366;2023-04-03T06:44:47;23.50;21.90
67196;DHT22;54122;53.538;49.366;2023-04-03T06:47:15;23.90;22.00
67196;DHT22;54122;53.538;49.366;2023-04-03T06:49:42;24.70;21.40
67196;DHT22;54122;53.538;49.366;2023-04-03T06:52:09;24.60;20.20
67196;DHT22;54122;53.538;49.366;2023-04-03T06:54:54;24.50;21.10
67196;DHT22;54122;53.538;49.366;2023-04-03T06:57:23;24.90;20.70
67196;DHT22;54122;53.538;49.366;2023-04-03T06:59:50;25.20;20.60
67196;DHT22;54122;53.538;49.366;2023-04-03T07:02:17;25.50;19.70
67196;DHT22;54122;53.538;49.366;2023-04-03T07:04:43;25.30;18.90
67196;DHT22;54122;53.538;49.366;2023-04-03T07:07:09;25.10;19.20
67196;DHT22;54122;53.538;49.366;2023-04-03T07:09:36;25.10;19.50
67196;DHT22;54122;53.538;49.366;2023-04-03T07:12:02;24.90;19.30
67196;DHT22;54122;53.538;49.366;2023-04-03T07:14:29;24.60;19.30
67196;DHT22;54122;53.538;49.366;2023-04-03T07:16:55;24.40;19.50
67196;DHT22;54122;53.538;49.366;2023-04-03T07:19:21;24.40;19.30
67196;DHT22;54122;53.538;49.366;2023-04-03T07:21:47;24.30;19.10
67196;DHT22;54122;53.538;49.366;2023-04-03T07:24:14;24.60;19.10
67196;DHT22;54122;53.538;49.366;2023-04-03T07:26:40;24.60;18.60
67196;DHT22;54122;53.538;49.366;2023-04-03T07:29:06;24.50;18.40
67196;DHT22;54122;53.538;49.366;2023-04-03T07:31:33;24.30;18.60
67196;DHT22;54122;53.538;49.366;2023-04-03T07:33:59;24.20;18.00
67196;DHT22;54122;53.538;49.366;2023-04-03T07:36:25;24.10;18.40
67196;DHT22;54122;53.538;49.366;2023-04-03T07:38:52;24.20;18.30
67196;DHT22;54122;53.538;49.366;2023-04-03T07:41:19;24.20;18.10
67196;DHT22;54122;53.538;49.366;2023-04-03T07:43:47;24.10;18.40
67196;DHT22;54122;53.538;49.366;2023-04-03T07:46:15;24.00;18.30
67196;DHT22;54122;53.538;49.366;2023-04-03T07:48:43;24.10;18.60
67196;DHT22;54122;53.538;49.366;2023-04-03T07:54:14;24.90;17.90
67196;DHT22;54122;53.538;49.366;2023-04-03T07:56:41;25.50;17.40
67196;DHT22;54122;53.538;49.366;2023-04-03T07:59:09;25.90;17.40
67196;DHT22;54122;53.538;49.366;2023-04-03T08:01:37;26.20;16.70
67196;DHT22;54122;53.538;49.366;2023-04-03T08:04:22;25.90;16.30
67196;DHT22;54122;53.538;49.366;2023-04-03T08:06:48;25.70;16.60
67196;DHT22;54122;53.538;49.366;2023-04-03T08:09:15;25.60;16.30
67196;DHT22;54122;53.538;49.366;2023-04-03T08:11:43;25.40;16.20
67196;DHT22;54122;53.538;49.366;2023-04-03T08:14:11;25.20;16.20
67196;DHT22;54122;53.538;49.366;2023-04-03T08:16:46;25.30;16.30
67196;DHT22;54122;53.538;49.366;2023-04-03T08:19:14;25.40;16.70
67196;DHT22;54122;53.538;49.366;2023-04-03T08:21:43;25.70;16.30
67196;DHT22;54122;53.538;49.366;2023-04-03T08:24:10;25.30;15.70
67196;DHT22;54122;53.538;49.366;2023-04-03T08:26:36;25.00;16.20
67196;DHT22;54122;53.538;49.366;2023-04-03T08:29:03;25.00;15.80
67196;DHT22;54122;53.538;49.366;2023-04-03T08:31:49;24.80;15.80
67196;DHT22;54122;53.538;49.366;2023-04-03T08:34:16;24.70;16.10
67196;DHT22;54122;53.538;49.366;2023-04-03T08:36:43;24.70;16.10
67196;DHT22;54122;53.538;49.366;2023-04-03T08:39:28;24.60;16.90
67196;DHT22;54122;53.538;49.366;2023-04-03T08:41:58;24.50;16.90
67196;DHT22;54122;53.538;49.366;2023-04-03T08:50:17;24.80;16.20
67196;DHT22;54122;53.538;49.366;2023-04-03T08:52:47;24.70;16.10
67196;DHT22;54122;53.538;49.366;2023-04-03T08:58:30;24.20;16.70
67196;DHT22;54122;53.538;49.366;2023-04-03T09:01:05;24.30;16.60
67196;DHT22;54122;53.538;49.366;2023-04-03T09:03:34;24.50;16.30
67196;DHT22;54122;53.538;49.366;2023-04-03T09:06:18;24.20;16.30
67196;DHT22;54122;53.538;49.366;2023-04-03T09:22:18;23.50;15.70
67196;DHT22;54122;53.538;49.366;2023-04-03T09:25:27;23.30;16.20
67196;DHT22;54122;53.538;49.366;2023-04-03T09:30:54;23.40;16.20
67196;DHT22;54122;53.538;49.366;2023-04-03T09:33:21;23.30;16.20
67196;DHT22;54122;53.538;49.366;2023-04-03T09:36:07;23.10;16.50
67196;DHT22;54122;53.538;49.366;2023-04-03T09:38:33;22.90;16.40
67196;DHT22;54122;53.538;49.366;2023-04-03T09:41:13;22.80;16.40
67196;DHT22;54122;53.538;49.366;2023-04-03T09:43:52;22.50;16.50
67196;DHT22;54122;53.538;49.366;2023-04-03T09:46:28;22.00;16.60
67196;DHT22;54122;53.538;49.366;2023-04-03T09:49:04;21.60;16.90
67196;DHT22;54122;53.538;49.366;2023-04-03T09:51:31;21.20;17.30
67196;DHT22;54122;53.538;49.366;2023-04-03T09:53:58;21.00;17.70
67196;DHT22;54122;53.538;49.366;2023-04-03T09:59:15;20.70;17.90
67196;DHT22;54122;53.538;49.366;2023-04-03T10:01:59;20.60;18.20
67196;DHT22;54122;53.538;49.366;2023-04-03T10:04:38;20.60;18.20
67196;DHT22;54122;53.538;49.366;2023-04-03T10:10:18;20.50;17.40
67196;DHT22;54122;53.538;49.366;2023-04-03T10:12:46;20.30;17.30
67196;DHT22;54122;53.538;49.366;2023-04-03T10:15:14;20.00;17.00
67196;DHT22;54122;53.538;49.366;2023-04-03T10:18:17;19.90;17.10
67196;DHT22;54122;53.538;49.366;2023-04-03T10:20:49;19.80;17.30
67196;DHT22;54122;53.538;49.366;2023-04-03T10:23:26;19.80;17.70
67196;DHT22;54122;53.538;49.366;2023-04-03T10:31:37;20.00;17.70
67196;DHT22;54122;53.538;49.366;2023-04-03T10:34:33;20.20;17.50
67196;DHT22;54122;53.538;49.366;2023-04-03T10:37:22;20.00;17.80
67196;DHT22;54122;53.538;49.366;2023-04-03T10:42:58;19.90;17.90
67196;DHT22;54122;53.538;49.366;2023-04-03T10:45:30;19.80;18.30
67196;DHT22;54122;53.538;49.366;2023-04-03T10:51:05;19.70;18.70
67196;DHT22;54122;53.538;49.366;2023-04-03T10:53:43;19.50;18.50
67196;DHT22;54122;53.538;49.366;2023-04-03T10:59:16;19.00;19.20
67196;DHT22;54122;53.538;49.366;2023-04-03T11:01:51;18.90;19.40
67196;DHT22;54122;53.538;49.366;2023-04-03T11:04:19;19.00;19.80
67196;DHT22;54122;53.538;49.366;2023-04-03T11:09:33;19.00;20.10
67196;DHT22;54122;53.538;49.366;2023-04-03T11:12:25;18.90;20.40
67196;DHT22;54122;53.538;49.366;2023-04-03T11:14:55;18.70;20.90
67196;DHT22;54122;53.538;49.366;2023-04-03T11:23:31;18.10;21.70
67196;DHT22;54122;53.538;49.366;2023-04-03T11:26:13;17.90;22.20
67196;DHT22;54122;53.538;49.366;2023-04-03T11:37:15;18.30;22.60
67196;DHT22;54122;53.538;49.366;2023-04-03T11:39:59;18.50;22.60
67196;DHT22;54122;53.538;49.366;2023-04-03T11:42:37;18.40;22.70
67196;DHT22;54122;53.538;49.366;2023-04-03T11:47:52;18.10;23.00
67196;DHT22;54122;53.538;49.366;2023-04-03T11:56:27;18.00;23.60
67196;DHT22;54122;53.538;49.366;2023-04-03T12:01:57;18.20;23.60
67196;DHT22;54122;53.538;49.366;2023-04-03T12:04:27;18.10;23.40
67196;DHT22;54122;53.538;49.366;2023-04-03T12:07:21;18.10;23.80
67196;DHT22;54122;53.538;49.366;2023-04-03T12:10:23;18.10;24.00
67196;DHT22;54122;53.538;49.366;2023-04-03T12:22:29;18.60;23.60
67196;DHT22;54122;53.538;49.366;2023-04-03T12:24:55;18.60;23.70
67196;DHT22;54122;53.538;49.366;2023-04-03T12:27:26;18.60;23.70
67196;DHT22;54122;53.538;49.366;2023-04-03T12:30:13;18.60;23.60
67196;DHT22;54122;53.538;49.366;2023-04-03T12:33:04;18.40;23.60
67196;DHT22;54122;53.538;49.366;2023-04-03T12:46:37;17.60;24.60
67196;DHT22;54122;53.538;49.366;2023-04-03T12:49:42;17.70;24.70
67196;DHT22;54122;53.538;49.366;2023-04-03T12:54:56;17.80;24.30
67196;DHT22;54122;53.538;49.366;2023-04-03T12:57:26;17.80;24.30
67196;DHT22;54122;53.538;49.366;2023-04-03T12:59:54;17.90;24.40
67196;DHT22;54122;53.538;49.366;2023-04-03T13:05:24;17.90;24.00
67196;DHT22;54122;53.538;49.366;2023-04-03T13:08:17;17.90;23.90
67196;DHT22;54122;53.538;49.366;2023-04-03T13:11:06;17.90;23.90
67196;DHT22;54122;53.538;49.366;2023-04-03T13:13:36;17.80;24.00
67196;DHT22;54122;53.538;49.366;2023-04-03T13:16:11;17.70;24.30
67196;DHT22;54122;53.538;49.366;2023-04-03T13:18:38;17.80;24.30
67196;DHT22;54122;53.538;49.366;2023-04-03T13:21:15;17.70;24.20
67196;DHT22;54122;53.538;49.366;2023-04-03T13:23:46;17.70;24.10
67196;DHT22;54122;53.538;49.366;2023-04-03T13:26:32;17.60;24.10
67196;DHT22;54122;53.538;49.366;2023-04-03T13:29:14;17.60;24.30
67196;DHT22;54122;53.538;49.366;2023-04-03T13:31:43;17.50;24.50
67196;DHT22;54122;53.538;49.366;2023-04-03T13:36:38;17.30;24.60
67196;DHT22;54122;53.538;49.366;2023-04-03T13:39:27;17.20;24.80
67196;DHT22;54122;53.538;49.366;2023-04-03T13:41:58;17.10;24.80
67196;DHT22;54122;53.538;49.366;2023-04-03T13:44:43;17.00;25.10
67196;DHT22;54122;53.538;49.366;2023-04-03T13:47:42;17.00;25.10
67196;DHT22;54122;53.538;49.366;2023-04-03T13:52:54;16.90;25.10
67196;DHT22;54122;53.538;49.366;2023-04-03T13:58:25;16.80;25.20
67196;DHT22;54122;53.538;49.366;2023-04-03T14:06:39;16.60;25.50
67196;DHT22;54122;53.538;49.366;2023-04-03T14:09:06;16.60;25.30
67196;DHT22;54122;53.538;49.366;2023-04-03T14:11:33;16.50;25.60
67196;DHT22;54122;53.538;49.366;2023-04-03T14:14:11;16.40;25.60
67196;DHT22;54122;53.538;49.366;2023-04-03T14:16:42;16.30;25.80
67196;DHT22;54122;53.538;49.366;2023-04-03T14:19:22;16.30;25.80
67196;DHT22;54122;53.538;49.366;2023-04-03T14:21:50;16.20;25.60
67196;DHT22;54122;53.538;49.366;2023-04-03T14:24:17;16.20;25.80
67196;DHT22;54122;53.538;49.366;2023-04-03T14:26:43;16.10;25.80
67196;DHT22;54122;53.538;49.366;2023-04-03T14:29:11;16.00;25.90
67196;DHT22;54122;53.538;49.366;2023-04-03T14:31:37;16.00;26.00
67196;DHT22;54122;53.538;49.366;2023-04-03T14:34:04;15.90;26.00
67196;DHT22;54122;53.538;49.366;2023-04-03T14:36:31;15.90;26.30
67196;DHT22;54122;53.538;49.366;2023-04-03T14:38:58;15.70;26.90
67196;DHT22;54122;53.538;49.366;2023-04-03T14:41:26;15.60;27.00
67196;DHT22;54122;53.538;49.366;2023-04-03T14:43:53;15.50;27.50
67196;DHT22;54122;53.538;49.366;2023-04-03T14:48:53;15.20;27.10
67196;DHT22;54122;53.538;49.366;2023-04-03T14:51:20;15.10;27.60
67196;DHT22;54122;53.538;49.366;2023-04-03T14:53:47;15.00;27.60
67196;DHT22;54122;53.538;49.366;2023-04-03T14:56:25;14.80;28.30
67196;DHT22;54122;53.538;49.366;2023-04-03T14:58:56;14.60;29.00
67196;DHT22;54122;53.538;49.366;2023-04-03T15:04:26;14.20;30.00
67196;DHT22;54122;53.538;49.366;2023-04-03T15:06:53;14.00;30.10
67196;DHT22;54122;53.538;49.366;2023-04-03T15:09:23;13.70;30.80
67196;DHT22;54122;53.538;49.366;2023-04-03T15:11:51;13.60;31.90
67196;DHT22;54122;53.538;49.366;2023-04-03T15:17:03;13.20;32.60
67196;DHT22;54122;53.538;49.366;2023-04-03T15:19:36;13.00;32.50
67196;DHT22;54122;53.538;49.366;2023-04-03T15:22:03;12.80;32.50
67196;DHT22;54122;53.538;49.366;2023-04-03T15:27:15;12.60;32.50
67196;DHT22;54122;53.538;49.366;2023-04-03T15:29:42;12.40;32.70
67196;DHT22;54122;53.538;49.366;2023-04-03T15:32:09;12.20;33.00
67196;DHT22;54122;53.538;49.366;2023-04-03T15:34:36;12.10;33.90
67196;DHT22;54122;53.538;49.366;2023-04-03T15:37:03;11.90;34.60
67196;DHT22;54122;53.538;49.366;2023-04-03T15:39:31;11.80;34.70
67196;DHT22;54122;53.538;49.366;2023-04-03T15:42:00;11.80;34.90
67196;DHT22;54122;53.538;49.366;2023-04-03T15:44:35;11.60;35.00
67196;DHT22;54122;53.538;49.366;2023-04-03T15:47:02;11.50;35.20
67196;DHT22;54122;53.538;49.366;2023-04-03T15:49:29;11.30;35.90
67196;DHT22;54122;53.538;49.366;2023-04-03T15:52:14;11.20;36.30
67196;DHT22;54122;53.538;49.366;2023-04-03T15:54:41;11.10;36.30
67196;DHT22;54122;53.538;49.366;2023-04-03T15:57:10;11.00;36.40
67196;DHT22;54122;53.538;49.366;2023-04-03T15:59:39;10.90;36.40
67196;DHT22;54122;53.538;49.366;2023-04-03T16:02:08;10.80;36.40
67196;DHT22;54122;53.538;49.366;2023-04-03T16:04:36;10.80;36.50
67196;DHT22;54122;53.538;49.366;2023-04-03T16:07:04;10.60;36.70
67196;DHT22;54122;53.538;49.366;2023-04-03T16:09:31;10.60;36.90
67196;DHT22;54122;53.538;49.366;2023-04-03T16:12:00;10.40;37.30
67196;DHT22;54122;53.538;49.366;2023-04-03T16:14:26;10.30;37.70
67196;DHT22;54122;53.538;49.366;2023-04-03T16:17:10;10.20;38.50
67196;DHT22;54122;53.538;49.366;2023-04-03T16:22:23;10.00;38.60
67196;DHT22;54122;53.538;49.366;2023-04-03T16:24:50;9.90;39.00
67196;DHT22;54122;53.538;49.366;2023-04-03T16:27:16;9.80;39.40
67196;DHT22;54122;53.538;49.366;2023-04-03T16:29:43;9.70;39.50
67196;DHT22;54122;53.538;49.366;2023-04-03T16:32:46;9.70;39.80
67196;DHT22;54122;53.538;49.366;2023-04-03T16:35:31;9.60;40.10
67196;DHT22;54122;53.538;49.366;2023-04-03T16:38:16;9.50;40.40
67196;DHT22;54122;53.538;49.366;2023-04-03T16:40:45;9.50;40.60
67196;DHT22;54122;53.538;49.366;2023-04-03T16:43:11;9.40;40.40
67196;DHT22;54122;53.538;49.366;2023-04-03T16:45:37;9.30;40.50
67196;DHT22;54122;53.538;49.366;2023-04-03T16:48:04;9.30;40.90
67196;DHT22;54122;53.538;49.366;2023-04-03T16:50:50;9.20;41.10
67196;DHT22;54122;53.538;49.366;2023-04-03T16:53:24;9.10;41.00
67196;DHT22;54122;53.538;49.366;2023-04-03T16:55:51;9.00;41.30
67196;DHT22;54122;53.538;49.366;2023-04-03T16:58:18;9.00;41.60
67196;DHT22;54122;53.538;49.366;2023-04-03T17:00:44;8.90;41.70
67196;DHT22;54122;53.538;49.366;2023-04-03T17:03:13;8.90;42.20
67196;DHT22;54122;53.538;49.366;2023-04-03T17:06:01;8.80;42.60
67196;DHT22;54122;53.538;49.366;2023-04-03T17:08:47;8.70;42.80
67196;DHT22;54122;53.538;49.366;2023-04-03T17:11:14;8.70;42.80
67196;DHT22;54122;53.538;49.366;2023-04-03T17:13:41;8.60;42.80
67196;DHT22;54122;53.538;49.366;2023-04-03T17:16:26;8.60;42.70
67196;DHT22;54122;53.538;49.366;2023-04-03T17:18:52;8.50;42.80
67196;DHT22;54122;53.538;49.366;2023-04-03T17:21:20;8.50;43.00
67196;DHT22;54122;53.538;49.366;2023-04-03T17:23:50;8.40;43.10
67196;DHT22;54122;53.538;49.366;2023-04-03T17:26:18;8.30;43.40
67196;DHT22;54122;53.538;49.366;2023-04-03T17:29:04;8.30;43.60
67196;DHT22;54122;53.538;49.366;2023-04-03T17:31:30;8.20;43.80
67196;DHT22;54122;53.538;49.366;2023-04-03T17:33:57;8.20;44.20
67196;DHT22;54122;53.538;49.366;2023-04-03T17:36:28;8.10;44.50
67196;DHT22;54122;53.538;49.366;2023-04-03T17:38:55;8.10;44.70
67196;DHT22;54122;53.538;49.366;2023-04-03T17:41:29;8.10;44.80
67196;DHT22;54122;53.538;49.366;2023-04-03T17:43:57;8.00;45.10
67196;DHT22;54122;53.538;49.366;2023-04-03T17:46:25;8.00;45.20
67196;DHT22;54122;53.538;49.366;2023-04-03T17:48:52;7.90;45.40
67196;DHT22;54122;53.538;49.366;2023-04-03T17:51:37;7.80;45.60
67196;DHT22;54122;53.538;49.366;2023-04-03T17:54:04;7.70;45.70
67196;DHT22;54122;53.538;49.366;2023-04-03T17:56:30;7.70;45.80
67196;DHT22;54122;53.538;49.366;2023-04-03T17:58:57;7.70;46.30
67196;DHT22;54122;53.538;49.366;2023-04-03T18:01:26;7.70;46.30
67196;DHT22;54122;53.538;49.366;2023-04-03T18:06:42;7.60;46.50
67196;DHT22;54122;53.538;49.366;2023-04-03T18:12:14;7.40;47.00